sensor_id;sensor_type;location;lat;lon;timestamp;pressure;altitude;pressure_sealevel;temperature;humidity
49178;BME280;35016;55.674;37.468;2023-08-08T00:00:07;98295.94;;;22.45;54.84
49178;BME280;35016;55.674;37.468;2023-08-08T00:02:35;98291.94;;;22.43;54.90
49178;BME280;35016;55.674;37.468;2023-08-08T00:05:03;98289.56;;;22.41;54.95
49178;BME280;35016;55.674;37.468;2023-08-08T00:07:33;98290.72;;;22.40;55.02
49178;BME280;35016;55.674;37.468;2023-08-08T00:10:00;98287.16;;;22.40;54.98
49178;BME280;35016;55.674;37.468;2023-08-08T00:12:29;98276.47;;;22.38;55.09
49178;BME280;35016;55.674;37.468;2023-08-08T00:14:55;98287.09;;;22.36;55.02
49178;BME280;35016;55.674;37.468;2023-08-08T00:17:22;98276.84;;;22.37;55.24
49178;BME280;35016;55.674;37.468;2023-08-08T00:19:49;98276.06;;;22.36;55.25
49178;BME280;35016;55.674;37.468;2023-08-08T00:22:17;98273.28;;;22.36;55.22
49178;BME280;35016;55.674;37.468;2023-08-08T00:24:44;98267.41;;;22.38;55.23
49178;BME280;35016;55.674;37.468;2023-08-08T00:27:10;98257.16;;;22.38;55.27
49178;BME280;35016;55.674;37.468;2023-08-08T00:29:38;98257.50;;;22.37;55.33
49178;BME280;35016;55.674;37.468;2023-08-08T00:32:05;98245.72;;;22.40;55.08
49178;BME280;35016;55.674;37.468;2023-08-08T00:34:32;98241.38;;;22.39;55.03
49178;BME280;35016;55.674;37.468;2023-08-08T00:36:59;98237.00;;;22.38;55.06
49178;BME280;35016;55.674;37.468;2023-08-08T00:39:26;98231.47;;;22.38;54.90
49178;BME280;35016;55.674;37.468;2023-08-08T00:41:53;98238.59;;;22.39;55.04
49178;BME280;35016;55.674;37.468;2023-08-08T00:44:20;98228.72;;;22.38;55.04
49178;BME280;35016;55.674;37.468;2023-08-08T00:46:47;98233.06;;;22.39;55.17
49178;BME280;35016;55.674;37.468;2023-08-08T00:49:14;98234.69;;;22.40;55.07
49178;BME280;35016;55.674;37.468;2023-08-08T00:51:42;98215.75;;;22.42;55.12
49178;BME280;35016;55.674;37.468;2023-08-08T00:54:10;98203.91;;;22.41;55.13
49178;BME280;35016;55.674;37.468;2023-08-08T00:56:37;98215.75;;;22.42;55.14
49178;BME280;35016;55.674;37.468;2023-08-08T00:59:04;98222.47;;;22.41;55.07
49178;BME280;35016;55.674;37.468;2023-08-08T01:01:33;98225.97;;;22.38;55.00
49178;BME280;35016;55.674;37.468;2023-08-08T01:04:00;98240.56;;;22.38;55.09
49178;BME280;35016;55.674;37.468;2023-08-08T01:09:37;98246.53;;;22.40;54.92
49178;BME280;35016;55.674;37.468;2023-08-08T01:12:03;98217.63;;;22.34;54.97
49178;BME280;35016;55.674;37.468;2023-08-08T01:14:34;98218.78;;;22.33;55.02
49178;BME280;35016;55.674;37.468;2023-08-08T01:17:02;98222.72;;;22.32;55.01
49178;BME280;35016;55.674;37.468;2023-08-08T01:19:31;98222.28;;;22.30;55.13
49178;BME280;35016;55.674;37.468;2023-08-08T01:22:06;98221.50;;;22.30;55.67
49178;BME280;35016;55.674;37.468;2023-08-08T01:24:35;98205.66;;;22.27;55.32
49178;BME280;35016;55.674;37.468;2023-08-08T01:27:04;98203.69;;;22.27;55.50
49178;BME280;35016;55.674;37.468;2023-08-08T01:29:32;98207.16;;;22.24;55.58
49178;BME280;35016;55.674;37.468;2023-08-08T01:31:59;98205.56;;;22.23;55.60
49178;BME280;35016;55.674;37.468;2023-08-08T01:34:27;98211.47;;;22.21;55.60
49178;BME280;35016;55.674;37.468;2023-08-08T01:37:01;98201.94;;;22.19;56.18
49178;BME280;35016;55.674;37.468;2023-08-08T01:39:31;98201.47;;;22.13;55.63
49178;BME280;35016;55.674;37.468;2023-08-08T01:41:59;98197.47;;;22.11;56.00
49178;BME280;35016;55.674;37.468;2023-08-08T01:44:28;98202.94;;;22.07;56.05
49178;BME280;35016;55.674;37.468;2023-08-08T01:46:56;98203.66;;;22.04;56.19
49178;BME280;35016;55.674;37.468;2023-08-08T01:49:23;98206.78;;;22.03;56.44
49178;BME280;35016;55.674;37.468;2023-08-08T01:51:50;98195.28;;;22.01;56.40
49178;BME280;35016;55.674;37.468;2023-08-08T01:54:19;98205.97;;;22.02;56.48
49178;BME280;35016;55.674;37.468;2023-08-08T01:56:46;98211.88;;;22.01;56.58
49178;BME280;35016;55.674;37.468;2023-08-08T01:59:13;98203.84;;;21.95;56.63
49178;BME280;35016;55.674;37.468;2023-08-08T02:01:42;98222.47;;;21.99;56.63
49178;BME280;35016;55.674;37.468;2023-08-08T02:04:09;98220.78;;;21.94;56.78
49178;BME280;35016;55.674;37.468;2023-08-08T02:06:36;98217.22;;;21.93;57.24
49178;BME280;35016;55.674;37.468;2023-08-08T02:09:03;98217.91;;;21.87;57.70
49178;BME280;35016;55.674;37.468;2023-08-08T02:11:31;98222.56;;;21.83;58.08
49178;BME280;35016;55.674;37.468;2023-08-08T02:13:58;98220.84;;;21.75;58.46
49178;BME280;35016;55.674;37.468;2023-08-08T02:16:25;98226.19;;;21.68;58.64
49178;BME280;35016;55.674;37.468;2023-08-08T02:18:52;98227.66;;;21.61;59.16
49178;BME280;35016;55.674;37.468;2023-08-08T02:21:19;98222.00;;;21.54;59.34
49178;BME280;35016;55.674;37.468;2023-08-08T02:23:48;98223.16;;;21.53;59.55
49178;BME280;35016;55.674;37.468;2023-08-08T02:26:15;98219.88;;;21.48;59.71
49178;BME280;35016;55.674;37.468;2023-08-08T02:28:42;98215.47;;;21.43;59.69
49178;BME280;35016;55.674;37.468;2023-08-08T02:31:10;98224.19;;;21.45;59.84
49178;BME280;35016;55.674;37.468;2023-08-08T02:33:37;98211.91;;;21.43;59.99
49178;BME280;35016;55.674;37.468;2023-08-08T02:36:04;98218.94;;;21.40;59.93
49178;BME280;35016;55.674;37.468;2023-08-08T02:38:31;98225.59;;;21.39;59.95
49178;BME280;35016;55.674;37.468;2023-08-08T02:40:58;98217.69;;;21.38;59.94
49178;BME280;35016;55.674;37.468;2023-08-08T02:43:25;98226.31;;;21.36;59.91
49178;BME280;35016;55.674;37.468;2023-08-08T02:45:52;98227.91;;;21.37;60.08
49178;BME280;35016;55.674;37.468;2023-08-08T02:48:19;98228.72;;;21.38;60.02
49178;BME280;35016;55.674;37.468;2023-08-08T02:50:47;98225.16;;;21.37;59.99
49178;BME280;35016;55.674;37.468;2023-08-08T02:53:15;98237.78;;;21.38;59.98
49178;BME280;35016;55.674;37.468;2023-08-08T02:55:46;98228.03;;;21.41;59.86
49178;BME280;35016;55.674;37.468;2023-08-08T02:58:14;98230.06;;;21.44;59.76
49178;BME280;35016;55.674;37.468;2023-08-08T03:00:41;98228.59;;;21.50;59.70
49178;BME280;35016;55.674;37.468;2023-08-08T03:03:12;98219.22;;;21.54;59.60
49178;BME280;35016;55.674;37.468;2023-08-08T03:05:40;98224.81;;;21.58;59.29
49178;BME280;35016;55.674;37.468;2023-08-08T03:08:07;98232.38;;;21.61;59.30
49178;BME280;35016;55.674;37.468;2023-08-08T03:10:34;98226.84;;;21.61;59.17
49178;BME280;35016;55.674;37.468;2023-08-08T03:13:01;98230.41;;;21.61;59.18
49178;BME280;35016;55.674;37.468;2023-08-08T03:15:28;98231.19;;;21.62;59.09
49178;BME280;35016;55.674;37.468;2023-08-08T03:17:56;98231.19;;;21.62;59.06
49178;BME280;35016;55.674;37.468;2023-08-08T03:20:24;98237.94;;;21.64;59.02
49178;BME280;35016;55.674;37.468;2023-08-08T03:22:51;98241.50;;;21.65;58.92
49178;BME280;35016;55.674;37.468;2023-08-08T03:25:19;98238.13;;;21.72;59.04
49178;BME280;35016;55.674;37.468;2023-08-08T03:27:47;98248.50;;;21.78;58.85
49178;BME280;35016;55.674;37.468;2023-08-08T03:30:14;98240.03;;;21.90;58.75
49178;BME280;35016;55.674;37.468;2023-08-08T03:32:43;98239.84;;;21.99;58.42
49178;BME280;35016;55.674;37.468;2023-08-08T03:35:10;98250.38;;;22.13;58.24
49178;BME280;35016;55.674;37.468;2023-08-08T03:37:41;98245.34;;;22.18;57.92
49178;BME280;35016;55.674;37.468;2023-08-08T03:40:08;98235.50;;;22.21;57.91
49178;BME280;35016;55.674;37.468;2023-08-08T03:42:35;98243.88;;;22.24;58.03
49178;BME280;35016;55.674;37.468;2023-08-08T03:45:03;98249.84;;;22.27;57.87
49178;BME280;35016;55.674;37.468;2023-08-08T03:47:30;98247.09;;;22.27;57.89
49178;BME280;35016;55.674;37.468;2023-08-08T03:49:58;98248.22;;;22.25;57.90
49178;BME280;35016;55.674;37.468;2023-08-08T03:52:26;98250.66;;;22.27;57.75
49178;BME280;35016;55.674;37.468;2023-08-08T03:54:53;98246.72;;;22.28;57.86
49178;BME280;35016;55.674;37.468;2023-08-08T03:57:21;98256.66;;;22.33;57.87
49178;BME280;35016;55.674;37.468;2023-08-08T03:59:48;98255.44;;;22.30;57.33
49178;BME280;35016;55.674;37.468;2023-08-08T04:02:15;98273.59;;;22.31;57.77
49178;BME280;35016;55.674;37.468;2023-08-08T04:04:42;98256.50;;;22.25;57.74
49178;BME280;35016;55.674;37.468;2023-08-08T04:07:09;98274.34;;;22.28;57.86
49178;BME280;35016;55.674;37.468;2023-08-08T04:09:36;98270.78;;;22.28;57.95
49178;BME280;35016;55.674;37.468;2023-08-08T04:12:05;98275.50;;;22.27;58.26
49178;BME280;35016;55.674;37.468;2023-08-08T04:14:32;98266.41;;;22.27;58.55
49178;BME280;35016;55.674;37.468;2023-08-08T04:16:59;98270.31;;;22.25;58.83
49178;BME280;35016;55.674;37.468;2023-08-08T04:19:26;98261.97;;;22.22;59.01
49178;BME280;35016;55.674;37.468;2023-08-08T04:21:53;98268.00;;;22.28;58.71
49178;BME280;35016;55.674;37.468;2023-08-08T04:24:20;98268.81;;;22.28;58.80
49178;BME280;35016;55.674;37.468;2023-08-08T04:26:47;98272.81;;;22.31;59.03
49178;BME280;35016;55.674;37.468;2023-08-08T04:29:14;98278.38;;;22.34;58.97
49178;BME280;35016;55.674;37.468;2023-08-08T04:31:41;98285.56;;;22.39;58.87
49178;BME280;35016;55.674;37.468;2023-08-08T04:34:09;98282.06;;;22.42;59.02
49178;BME280;35016;55.674;37.468;2023-08-08T04:36:36;98273.03;;;22.45;58.88
49178;BME280;35016;55.674;37.468;2023-08-08T04:39:03;98275.50;;;22.50;58.68
49178;BME280;35016;55.674;37.468;2023-08-08T04:41:30;98278.69;;;22.52;58.56
49178;BME280;35016;55.674;37.468;2023-08-08T04:43:57;98275.19;;;22.55;58.59
49178;BME280;35016;55.674;37.468;2023-08-08T04:46:24;98276.34;;;22.54;58.40
49178;BME280;35016;55.674;37.468;2023-08-08T04:48:51;98276.72;;;22.52;58.44
49178;BME280;35016;55.674;37.468;2023-08-08T04:51:18;98285.81;;;22.53;58.58
49178;BME280;35016;55.674;37.468;2023-08-08T04:53:45;98272.00;;;22.53;58.25
49178;BME280;35016;55.674;37.468;2023-08-08T04:56:13;98273.47;;;22.47;58.34
49178;BME280;35016;55.674;37.468;2023-08-08T04:58:41;98275.81;;;22.45;58.48
49178;BME280;35016;55.674;37.468;2023-08-08T05:01:08;98284.84;;;22.42;58.83
49178;BME280;35016;55.674;37.468;2023-08-08T05:03:38;98282.88;;;22.42;58.89
49178;BME280;35016;55.674;37.468;2023-08-08T05:06:05;98295.50;;;22.43;59.13
49178;BME280;35016;55.674;37.468;2023-08-08T05:08:32;98299.06;;;22.44;59.31
49178;BME280;35016;55.674;37.468;2023-08-08T05:10:59;98299.44;;;22.42;59.34
49178;BME280;35016;55.674;37.468;2023-08-08T05:13:26;98294.66;;;22.39;59.40
49178;BME280;35016;55.674;37.468;2023-08-08T05:15:54;98300.47;;;22.34;59.35
49178;BME280;35016;55.674;37.468;2023-08-08T05:18:20;98300.78;;;22.29;59.71
49178;BME280;35016;55.674;37.468;2023-08-08T05:20:47;98294.75;;;22.23;59.73
49178;BME280;35016;55.674;37.468;2023-08-08T05:23:15;98300.19;;;22.20;59.78
49178;BME280;35016;55.674;37.468;2023-08-08T05:25:42;98308.41;;;22.16;59.99
49178;BME280;35016;55.674;37.468;2023-08-08T05:28:09;98294.97;;;22.15;60.18
49178;BME280;35016;55.674;37.468;2023-08-08T05:30:36;98294.69;;;22.20;60.10
49178;BME280;35016;55.674;37.468;2023-08-08T05:33:03;98296.44;;;22.28;59.91
49178;BME280;35016;55.674;37.468;2023-08-08T05:35:30;98309.94;;;22.33;59.88
49178;BME280;35016;55.674;37.468;2023-08-08T05:37:57;98304.47;;;22.37;59.92
49178;BME280;35016;55.674;37.468;2023-08-08T05:40:24;98307.72;;;22.42;59.81
49178;BME280;35016;55.674;37.468;2023-08-08T05:42:51;98306.31;;;22.52;59.82
49178;BME280;35016;55.674;37.468;2023-08-08T05:45:18;98297.38;;;22.59;59.68
49178;BME280;35016;55.674;37.468;2023-08-08T05:47:45;98294.34;;;22.67;59.50
49178;BME280;35016;55.674;37.468;2023-08-08T05:50:12;98300.84;;;22.78;59.49
49178;BME280;35016;55.674;37.468;2023-08-08T05:52:40;98295.19;;;22.91;59.21
49178;BME280;35016;55.674;37.468;2023-08-08T05:55:07;98297.69;;;22.99;58.81
49178;BME280;35016;55.674;37.468;2023-08-08T05:57:34;98300.06;;;23.01;58.53
49178;BME280;35016;55.674;37.468;2023-08-08T06:00:02;98309.66;;;23.07;58.42
49178;BME280;35016;55.674;37.468;2023-08-08T06:02:38;98308.59;;;23.15;58.30
49178;BME280;35016;55.674;37.468;2023-08-08T06:05:06;98307.59;;;23.27;58.08
49178;BME280;35016;55.674;37.468;2023-08-08T06:07:33;98305.34;;;23.36;57.86
49178;BME280;35016;55.674;37.468;2023-08-08T06:10:00;98316.63;;;23.50;57.58
49178;BME280;35016;55.674;37.468;2023-08-08T06:12:29;98319.56;;;23.61;57.29
49178;BME280;35016;55.674;37.468;2023-08-08T06:14:55;98303.13;;;23.71;56.99
49178;BME280;35016;55.674;37.468;2023-08-08T06:17:22;98312.38;;;23.86;56.59
49178;BME280;35016;55.674;37.468;2023-08-08T06:19:50;98318.16;;;24.04;56.28
49178;BME280;35016;55.674;37.468;2023-08-08T06:22:17;98308.44;;;24.21;56.11
49178;BME280;35016;55.674;37.468;2023-08-08T06:24:44;98313.00;;;24.36;55.80
49178;BME280;35016;55.674;37.468;2023-08-08T06:27:12;98307.94;;;24.45;55.46
49178;BME280;35016;55.674;37.468;2023-08-08T06:29:40;98317.13;;;24.53;55.32
49178;BME280;35016;55.674;37.468;2023-08-08T06:32:07;98314.09;;;24.65;55.16
49178;BME280;35016;55.674;37.468;2023-08-08T06:34:34;98302.72;;;24.81;54.77
49178;BME280;35016;55.674;37.468;2023-08-08T06:37:01;98303.31;;;25.00;54.73
49178;BME280;35016;55.674;37.468;2023-08-08T06:39:28;98308.63;;;25.20;54.29
49178;BME280;35016;55.674;37.468;2023-08-08T06:41:56;98313.16;;;25.46;53.82
49178;BME280;35016;55.674;37.468;2023-08-08T06:44:41;98315.28;;;25.67;52.92
49178;BME280;35016;55.674;37.468;2023-08-08T06:47:09;98317.28;;;25.73;52.63
49178;BME280;35016;55.674;37.468;2023-08-08T06:49:36;98308.19;;;25.76;52.49
49178;BME280;35016;55.674;37.468;2023-08-08T06:52:04;98314.91;;;25.72;52.34
49178;BME280;35016;55.674;37.468;2023-08-08T06:54:33;98310.88;;;25.66;52.56
49178;BME280;35016;55.674;37.468;2023-08-08T06:57:00;98307.69;;;25.63;52.53
49178;BME280;35016;55.674;37.468;2023-08-08T06:59:29;98318.06;;;25.70;52.55
49178;BME280;35016;55.674;37.468;2023-08-08T07:01:56;98323.28;;;25.79;52.53
49178;BME280;35016;55.674;37.468;2023-08-08T07:04:23;98322.13;;;25.87;52.43
49178;BME280;35016;55.674;37.468;2023-08-08T07:06:50;98330.50;;;25.98;52.05
49178;BME280;35016;55.674;37.468;2023-08-08T07:09:17;98328.59;;;26.12;51.64
49178;BME280;35016;55.674;37.468;2023-08-08T07:11:45;98338.13;;;26.18;51.46
49178;BME280;35016;55.674;37.468;2023-08-08T07:14:12;98339.72;;;26.19;51.33
49178;BME280;35016;55.674;37.468;2023-08-08T07:16:39;98337.75;;;26.20;51.65
49178;BME280;35016;55.674;37.468;2023-08-08T07:19:06;98329.00;;;26.18;51.36
49178;BME280;35016;55.674;37.468;2023-08-08T07:21:33;98338.13;;;26.18;51.53
49178;BME280;35016;55.674;37.468;2023-08-08T07:24:00;98332.19;;;26.20;51.49
49178;BME280;35016;55.674;37.468;2023-08-08T07:26:29;98323.03;;;26.16;51.20
49178;BME280;35016;55.674;37.468;2023-08-08T07:28:57;98330.59;;;26.19;51.68
49178;BME280;35016;55.674;37.468;2023-08-08T07:31:24;98333.81;;;26.32;51.36
49178;BME280;35016;55.674;37.468;2023-08-08T07:33:51;98322.38;;;26.44;50.88
49178;BME280;35016;55.674;37.468;2023-08-08T07:36:18;98325.56;;;26.53;50.63
49178;BME280;35016;55.674;37.468;2023-08-08T07:38:45;98331.53;;;26.62;50.59
49178;BME280;35016;55.674;37.468;2023-08-08T07:41:12;98341.50;;;26.74;50.39
49178;BME280;35016;55.674;37.468;2023-08-08T07:43:39;98337.53;;;26.89;49.96
49178;BME280;35016;55.674;37.468;2023-08-08T07:46:06;98351.09;;;27.01;49.94
49178;BME280;35016;55.674;37.468;2023-08-08T07:48:33;98342.34;;;27.10;49.77
49178;BME280;35016;55.674;37.468;2023-08-08T07:51:01;98349.09;;;27.27;49.58
49178;BME280;35016;55.674;37.468;2023-08-08T07:53:28;98354.63;;;27.41;49.27
49178;BME280;35016;55.674;37.468;2023-08-08T07:55:55;98345.09;;;27.49;48.81
49178;BME280;35016;55.674;37.468;2023-08-08T07:58:22;98351.06;;;27.51;49.05
49178;BME280;35016;55.674;37.468;2023-08-08T08:00:53;98352.25;;;27.57;48.77
49178;BME280;35016;55.674;37.468;2023-08-08T08:03:20;98343.09;;;27.64;48.98
49178;BME280;35016;55.674;37.468;2023-08-08T08:05:48;98338.69;;;27.70;48.45
49178;BME280;35016;55.674;37.468;2023-08-08T08:08:15;98347.06;;;27.77;48.48
49178;BME280;35016;55.674;37.468;2023-08-08T08:10:42;98342.28;;;27.81;48.43
49178;BME280;35016;55.674;37.468;2023-08-08T08:13:09;98356.19;;;27.88;48.27
49178;BME280;35016;55.674;37.468;2023-08-08T08:15:38;98354.16;;;27.96;48.20
49178;BME280;35016;55.674;37.468;2023-08-08T08:18:05;98356.13;;;28.06;47.76
49178;BME280;35016;55.674;37.468;2023-08-08T08:20:33;98359.69;;;28.10;47.72
49178;BME280;35016;55.674;37.468;2023-08-08T08:23:00;98356.09;;;28.10;47.58
49178;BME280;35016;55.674;37.468;2023-08-08T08:25:27;98361.28;;;28.07;47.57
49178;BME280;35016;55.674;37.468;2023-08-08T08:27:54;98357.72;;;28.07;47.45
49178;BME280;35016;55.674;37.468;2023-08-08T08:30:21;98352.13;;;28.07;47.61
49178;BME280;35016;55.674;37.468;2023-08-08T08:32:50;98352.53;;;28.05;47.59
49178;BME280;35016;55.674;37.468;2023-08-08T08:35:18;98348.56;;;27.99;47.70
49178;BME280;35016;55.674;37.468;2023-08-08T08:37:46;98357.72;;;28.00;47.63
49178;BME280;35016;55.674;37.468;2023-08-08T08:40:13;98358.91;;;27.99;47.52
49178;BME280;35016;55.674;37.468;2023-08-08T08:42:41;98368.84;;;28.03;47.49
49178;BME280;35016;55.674;37.468;2023-08-08T08:45:09;98364.88;;;28.04;47.20
49178;BME280;35016;55.674;37.468;2023-08-08T08:47:37;98373.63;;;28.03;47.04
49178;BME280;35016;55.674;37.468;2023-08-08T08:50:06;98365.28;;;28.03;47.37
49178;BME280;35016;55.674;37.468;2023-08-08T08:52:34;98369.63;;;28.15;47.23
49178;BME280;35016;55.674;37.468;2023-08-08T08:55:01;98370.38;;;28.29;47.04
49178;BME280;35016;55.674;37.468;2023-08-08T08:57:29;98361.97;;;28.40;46.72
49178;BME280;35016;55.674;37.468;2023-08-08T08:59:56;98363.47;;;28.55;46.54
49178;BME280;35016;55.674;37.468;2023-08-08T09:02:23;98360.63;;;28.66;46.37
49178;BME280;35016;55.674;37.468;2023-08-08T09:04:51;98365.00;;;28.71;46.34
49178;BME280;35016;55.674;37.468;2023-08-08T09:07:20;98364.53;;;28.79;46.09
49178;BME280;35016;55.674;37.468;2023-08-08T09:09:50;98356.88;;;28.97;45.96
49178;BME280;35016;55.674;37.468;2023-08-08T09:12:17;98364.34;;;29.08;45.70
49178;BME280;35016;55.674;37.468;2023-08-08T09:14:45;98369.50;;;29.13;45.81
49178;BME280;35016;55.674;37.468;2023-08-08T09:17:12;98369.44;;;29.20;45.50
49178;BME280;35016;55.674;37.468;2023-08-08T09:19:46;98358.72;;;29.15;45.25
49178;BME280;35016;55.674;37.468;2023-08-08T09:22:13;98367.97;;;29.05;45.46
49178;BME280;35016;55.674;37.468;2023-08-08T09:24:41;98368.47;;;28.92;45.60
49178;BME280;35016;55.674;37.468;2023-08-08T09:27:09;98376.06;;;28.85;45.76
49178;BME280;35016;55.674;37.468;2023-08-08T09:29:38;98380.03;;;28.84;45.93
49178;BME280;35016;55.674;37.468;2023-08-08T09:32:05;98378.88;;;28.81;45.79
49178;BME280;35016;55.674;37.468;2023-08-08T09:34:33;98372.94;;;28.76;45.81
49178;BME280;35016;55.674;37.468;2023-08-08T09:37:00;98367.34;;;28.76;45.66
49178;BME280;35016;55.674;37.468;2023-08-08T09:39:28;98371.31;;;28.78;45.76
49178;BME280;35016;55.674;37.468;2023-08-08T09:41:56;98374.50;;;28.80;45.96
49178;BME280;35016;55.674;37.468;2023-08-08T09:44:24;98376.91;;;28.75;45.79
49178;BME280;35016;55.674;37.468;2023-08-08T09:46:54;98378.91;;;28.74;45.85
49178;BME280;35016;55.674;37.468;2023-08-08T09:49:21;98378.97;;;28.67;45.82
49178;BME280;35016;55.674;37.468;2023-08-08T09:51:49;98388.13;;;28.67;45.98
49178;BME280;35016;55.674;37.468;2023-08-08T09:54:17;98385.72;;;28.69;45.90
49178;BME280;35016;55.674;37.468;2023-08-08T09:56:44;98372.56;;;28.70;45.81
49178;BME280;35016;55.674;37.468;2023-08-08T09:59:12;98376.59;;;28.65;45.80
49178;BME280;35016;55.674;37.468;2023-08-08T10:01:40;98385.78;;;28.55;46.24
49178;BME280;35016;55.674;37.468;2023-08-08T10:04:08;98382.66;;;28.46;46.42
49178;BME280;35016;55.674;37.468;2023-08-08T10:06:35;98386.28;;;28.40;46.55
49178;BME280;35016;55.674;37.468;2023-08-08T10:09:03;98387.50;;;28.35;46.46
49178;BME280;35016;55.674;37.468;2023-08-08T10:11:31;98379.13;;;28.31;46.60
49178;BME280;35016;55.674;37.468;2023-08-08T10:14:02;98384.31;;;28.29;46.63
49178;BME280;35016;55.674;37.468;2023-08-08T10:16:32;98377.53;;;28.23;46.69
49178;BME280;35016;55.674;37.468;2023-08-08T10:19:02;98374.03;;;28.12;46.82
49178;BME280;35016;55.674;37.468;2023-08-08T10:21:42;98383.97;;;28.10;47.43
49178;BME280;35016;55.674;37.468;2023-08-08T10:24:10;98388.00;;;27.98;47.48
49178;BME280;35016;55.674;37.468;2023-08-08T10:26:57;98386.81;;;27.88;48.00
49178;BME280;35016;55.674;37.468;2023-08-08T10:29:26;98381.69;;;27.72;48.27
49178;BME280;35016;55.674;37.468;2023-08-08T10:32:01;98391.63;;;27.70;48.41
49178;BME280;35016;55.674;37.468;2023-08-08T10:34:40;98394.84;;;27.65;48.58
49178;BME280;35016;55.674;37.468;2023-08-08T10:37:11;98396.41;;;27.55;48.30
49178;BME280;35016;55.674;37.468;2023-08-08T10:39:51;98401.19;;;27.48;48.77
49178;BME280;35016;55.674;37.468;2023-08-08T10:42:19;98393.25;;;27.32;48.53
49178;BME280;35016;55.674;37.468;2023-08-08T10:44:58;98404.38;;;27.25;49.15
49178;BME280;35016;55.674;37.468;2023-08-08T10:47:26;98408.34;;;27.13;48.83
49178;BME280;35016;55.674;37.468;2023-08-08T10:55:27;98417.44;;;26.92;49.58
49178;BME280;35016;55.674;37.468;2023-08-08T10:58:12;98413.47;;;26.90;49.57
49178;BME280;35016;55.674;37.468;2023-08-08T11:00:42;98420.19;;;26.81;49.80
49178;BME280;35016;55.674;37.468;2023-08-08T11:03:10;98425.34;;;26.79;49.88
49178;BME280;35016;55.674;37.468;2023-08-08T11:05:38;98431.31;;;26.81;50.48
49178;BME280;35016;55.674;37.468;2023-08-08T11:08:06;98418.97;;;26.79;50.48
49178;BME280;35016;55.674;37.468;2023-08-08T11:10:40;98425.34;;;26.83;50.78
49178;BME280;35016;55.674;37.468;2023-08-08T11:13:08;98433.28;;;26.81;50.53
49178;BME280;35016;55.674;37.468;2023-08-08T11:15:37;98424.56;;;26.79;50.71
49178;BME280;35016;55.674;37.468;2023-08-08T11:18:05;98422.97;;;26.78;50.64
49178;BME280;35016;55.674;37.468;2023-08-08T11:20:34;98431.69;;;26.76;50.49
49178;BME280;35016;55.674;37.468;2023-08-08T11:23:02;98434.47;;;26.69;50.30
49178;BME280;35016;55.674;37.468;2023-08-08T11:25:32;98423.34;;;26.66;50.50
49178;BME280;35016;55.674;37.468;2023-08-08T11:27:59;98430.09;;;26.65;50.42
49178;BME280;35016;55.674;37.468;2023-08-08T11:30:33;98433.28;;;26.67;50.77
49178;BME280;35016;55.674;37.468;2023-08-08T11:33:01;98429.69;;;26.70;51.16
49178;BME280;35016;55.674;37.468;2023-08-08T11:35:31;98440.44;;;26.78;50.89
49178;BME280;35016;55.674;37.468;2023-08-08T11:37:58;98439.69;;;26.92;50.88
49178;BME280;35016;55.674;37.468;2023-08-08T11:40:28;98427.41;;;27.14;50.72
49178;BME280;35016;55.674;37.468;2023-08-08T11:42:56;98430.22;;;27.43;50.46
49178;BME280;35016;55.674;37.468;2023-08-08T11:45:23;98431.03;;;27.72;50.08
49178;BME280;35016;55.674;37.468;2023-08-08T11:47:55;98435.75;;;28.11;49.83
49178;BME280;35016;55.674;37.468;2023-08-08T11:50:24;98428.09;;;28.47;49.17
49178;BME280;35016;55.674;37.468;2023-08-08T11:52:53;98431.88;;;28.92;48.04
49178;BME280;35016;55.674;37.468;2023-08-08T11:55:30;98433.91;;;29.40;47.13
49178;BME280;35016;55.674;37.468;2023-08-08T11:57:57;98428.34;;;29.88;45.97
49178;BME280;35016;55.674;37.468;2023-08-08T12:00:28;98429.78;;;30.41;45.53
49178;BME280;35016;55.674;37.468;2023-08-08T12:03:00;98431.47;;;30.96;44.74
49178;BME280;35016;55.674;37.468;2023-08-08T12:05:28;98433.72;;;31.58;43.56
49178;BME280;35016;55.674;37.468;2023-08-08T12:07:58;98427.13;;;32.35;42.64
49178;BME280;35016;55.674;37.468;2023-08-08T12:10:25;98427.66;;;33.22;41.35
49178;BME280;35016;55.674;37.468;2023-08-08T12:12:54;98424.38;;;34.05;40.15
49178;BME280;35016;55.674;37.468;2023-08-08T12:15:22;98428.81;;;34.76;38.74
49178;BME280;35016;55.674;37.468;2023-08-08T12:17:49;98425.78;;;34.96;38.05
49178;BME280;35016;55.674;37.468;2023-08-08T12:20:16;98431.19;;;34.91;37.39
49178;BME280;35016;55.674;37.468;2023-08-08T12:22:43;98429.63;;;34.90;37.42
49178;BME280;35016;55.674;37.468;2023-08-08T12:25:11;98441.00;;;34.86;37.03
49178;BME280;35016;55.674;37.468;2023-08-08T12:27:38;98435.00;;;34.71;37.10
49178;BME280;35016;55.674;37.468;2023-08-08T12:30:07;98431.75;;;34.98;36.84
49178;BME280;35016;55.674;37.468;2023-08-08T12:32:34;98437.16;;;35.69;36.34
49178;BME280;35016;55.674;37.468;2023-08-08T12:35:01;98434.75;;;36.49;34.94
49178;BME280;35016;55.674;37.468;2023-08-08T12:37:29;98437.84;;;36.86;34.29
49178;BME280;35016;55.674;37.468;2023-08-08T12:39:56;98432.03;;;36.68;34.48
49178;BME280;35016;55.674;37.468;2023-08-08T12:42:23;98434.34;;;36.16;34.08
49178;BME280;35016;55.674;37.468;2023-08-08T12:44:53;98428.00;;;35.78;34.53
49178;BME280;35016;55.674;37.468;2023-08-08T12:47:20;98434.44;;;35.78;34.97
49178;BME280;35016;55.674;37.468;2023-08-08T12:49:48;98434.63;;;35.96;34.48
49178;BME280;35016;55.674;37.468;2023-08-08T12:52:15;98439.25;;;36.25;34.11
49178;BME280;35016;55.674;37.468;2023-08-08T12:54:42;98422.84;;;36.76;33.44
49178;BME280;35016;55.674;37.468;2023-08-08T12:57:10;98439.66;;;37.42;32.80
49178;BME280;35016;55.674;37.468;2023-08-08T12:59:37;98431.00;;;37.95;32.36
49178;BME280;35016;55.674;37.468;2023-08-08T13:02:04;98435.22;;;38.54;31.51